Airfield :
LOGIN :

Register | Disclaimer

   EN    FR    IT 

 










Legend :    VFR   Marginal VFR   IFR   Intensive IFR   Very Intensive IFR
Visi :
Ceiling :
>= 8 km
>= 3000ft
5 to 8 km
1000 to 3000 ft
1500m to 5 km
500 to 1000 ft
800 to 1500m
200 to 500 ft
< 800m
< 200 ft
Symbols :   Thunderstorms  Fog  Heavy snow  Heavy precipitations  Wind > 20 kt
SIGMETs :     Misc.  Thunderstorms  Icing  Turbulence  Mountain Waves  Volcanic Ashes






- Airport Elevation : 288 ft
- IATA code : BZZ


EGVN - RAF Brize Norton

CURRENT METAR :
  • 280620Z 13003KT 9999 FEW020 BKN070 02/M00 Q1010 TEMPO -RA BKN020 RMK BLU TEMPO WHT

EXPIRED METARs :
  • 280550Z 12002KT CAVOK 02/M01 Q1011 TEMPO -RA SCT020 RMK BLU TEMPO WHT
  • 280520Z 19003KT CAVOK 01/M01 Q1011 NOSIG RMK BLU BLU
  • 280450Z 12002KT CAVOK 01/M01 Q1011 NOSIG RMK BLU BLU
  • 280420Z 11002KT CAVOK M00/M01 Q1012 NOSIG RMK BLU BLU
  • 280350Z 10002KT CAVOK M00/M02 Q1012 NOSIG RMK BLU BLU
  • 280321Z 20003KT CAVOK M00/M02 Q1013 NOSIG RMK BLU BLU

TAF TAF EGVN
Valid from the 28 at 06:00 until the 29 at 06:00 UTC


280434Z 2806/2906 16010KT 9999 FEW027
BECMG 2806/2809 -RA OVC011
TEMPO 2807/2811 6000 RA
PROB40
TEMPO 2811/2815 4000 RADZ BKN006
PROB30
TEMPO 2815/2824 22015G25KT 4000 -DZ SCT006
PROB40
TEMPO 2900/2905 18018G30KT BKN020
PROB30
TEMPO 2905/2906 23018G30KT 3000 +SHRA



MET'MAP, your aeronautical weather chart ! - Copyright ORBIFLY December 2007 - Disclaimer

ORBIFLY MET'MAP TEAM :

Programming & Development : Alexandra Zaïnal
Concept & original design : Baudouin d'Aumeries
Assistance for programming : Marc-Olivier Méhu
Technical & hardware support : Manuel Goepfert

Contact : metmap@orbifly.com




SOURCES & CREDITS :

   NOAA